Terminal Aerodrome Forecast
Issued by NWS

Home | Current Version | Previous Version | Text Only | Print | Product List | Glossary On
Versions: 1 2 3 4 5 6 7 8 9 10 11 12 13 14 15 16 17
000
FTUS45 KTFX 301731
TAFLWT
TAF
KLWT 301731Z 3018/3118 12007KT P6SM SCT100 BKN150
     FM301900 VRB06KT P6SM VCSH SCT050 OVC090
      TEMPO 3019/3023 VRB25G38KT 4SM TSRA OVC020CB
     FM310200 11005KT P6SM SKC
     FM311100 11005KT P6SM BKN200
     FM311700 14008KT P6SM SCT045 BKN200=

USA.gov is the U.S. government's official web portal to all federal, state and local government web resources and services.